createdAt,value
2023-04-15T00:01:01.209Z,76.37672894346426
2023-04-15T00:03:57.816Z,75.31385987245235
2023-04-15T00:06:54.329Z,74.46486682546146
2023-04-15T00:09:49.843Z,74.43888060094658
2023-04-15T00:12:46.444Z,74.32621653227923
2023-04-15T00:15:43.979Z,73.97839421055409
2023-04-15T00:18:40.571Z,74.90105960336108
2023-04-15T00:21:37.135Z,76.93427138751366
2023-04-15T00:24:33.644Z,77.20511260209261
2023-04-15T00:27:29.223Z,77.93057918200265
2023-04-15T00:33:30.308Z,77.81383960623874
2023-04-15T00:36:25.860Z,76.55818679591232
2023-04-15T00:39:22.389Z,74.84320098894463
2023-04-15T00:42:18.970Z,75.83543865717307
2023-04-15T00:45:15.573Z,75.95987151429671
2023-04-15T00:48:13.092Z,76.5965508913642
2023-04-15T00:51:09.772Z,76.4494680702384
2023-04-15T00:54:06.232Z,77.27142032584901
2023-04-15T00:57:02.788Z,77.78143301871688
2023-04-15T01:00:00.393Z,75.01399581197538
2023-04-15T01:02:57.101Z,76.89065993514446
2023-04-15T01:05:57.440Z,76.81339566063266
2023-04-15T01:08:53.978Z,77.47113492127423
2023-04-15T01:11:50.567Z,78.3690542345392
2023-04-15T01:14:46.126Z,78.24226118432699
2023-04-15T01:20:49.226Z,79.09691335206304
2023-04-15T01:23:47.758Z,78.85474457110055
2023-04-15T01:26:45.337Z,79.74429938721927
2023-04-15T01:29:42.870Z,79.8570329200744
2023-04-15T01:32:39.443Z,78.42847569715364
2023-04-15T01:35:37.006Z,78.69374955739237
2023-04-15T01:38:36.578Z,79.23022448156009
2023-04-15T01:41:33.111Z,79.28178351113611
2023-04-15T01:44:29.661Z,79.81245986208283
2023-04-15T01:47:27.258Z,79.99578661284123
2023-04-15T01:50:22.774Z,79.35653922933412
2023-04-15T01:53:19.370Z,79.34221364561107
2023-04-15T01:56:16.992Z,79.57649198684152
2023-04-15T01:59:12.469Z,78.13295605875743
2023-04-15T02:02:08.171Z,79.34857669607038
2023-04-15T02:05:05.623Z,78.30261635166896
2023-04-15T02:08:04.140Z,79.438193824964
2023-04-15T02:11:00.680Z,80.43544958250999
2023-04-15T02:13:56.280Z,79.45023210917606
2023-04-15T02:16:52.915Z,80.11428466177186
2023-04-15T02:19:49.383Z,79.40470297762012
2023-04-15T02:22:49.937Z,79.79212298697563
2023-04-15T02:25:53.423Z,78.41794401412491
2023-04-15T02:28:49.030Z,76.35800381468717
2023-04-15T02:31:45.661Z,74.86427778757931
2023-04-15T02:34:42.136Z,76.73433346476956
2023-04-15T02:37:42.706Z,76.85672315514914
2023-04-15T02:40:39.247Z,78.11621232964127
2023-04-15T02:43:37.803Z,77.3248745634931
2023-04-15T02:46:33.355Z,75.19445185452918
2023-04-15T02:49:31.016Z,74.61622511610061
2023-04-15T02:52:26.480Z,74.51775899541576
2023-04-15T02:58:29.566Z,75.7594408496895
2023-04-15T03:04:30.698Z,76.7595421641896
2023-04-15T03:07:26.191Z,75.70011315945881
2023-04-15T03:10:21.816Z,75.34952336500062
2023-04-15T03:13:17.382Z,74.5447466702484
2023-04-15T03:16:14.009Z,74.92910612942244
2023-04-15T03:19:09.488Z,74.70566131893757
2023-04-15T03:25:11.555Z,75.00486147781025
2023-04-15T03:28:07.130Z,73.54350245374485
2023-04-15T03:31:02.721Z,73.96121235120532
2023-04-15T03:33:58.209Z,74.63060597954492
2023-04-15T03:36:53.779Z,74.59872319943658
2023-04-15T03:39:49.328Z,74.62340838061064
2023-04-15T03:42:44.950Z,73.98024997736321
2023-04-15T03:45:41.514Z,74.28286262821146
2023-04-15T03:48:38.054Z,73.76543243010964
2023-04-15T03:51:33.653Z,74.52275626555186
2023-04-15T03:54:31.191Z,74.58505296098892
2023-04-15T03:57:27.739Z,76.16307105681177
2023-04-15T04:00:23.298Z,75.61817019991429
2023-04-15T04:03:20.153Z,75.79173581420768
2023-04-15T04:06:16.393Z,77.0422917990999
2023-04-15T04:09:12.967Z,78.24929494542914
2023-04-15T04:12:09.569Z,79.17654531363249
2023-04-15T04:15:06.087Z,76.29375284977965
2023-04-15T04:18:01.734Z,75.30052933907977
2023-04-15T04:20:57.222Z,77.48540489977262
2023-04-15T04:23:52.818Z,78.48061636196512
2023-04-15T04:26:48.328Z,79.6498975069998
2023-04-15T04:29:43.914Z,79.14768109011149
2023-04-15T04:32:39.452Z,80.4760587803864
2023-04-15T04:35:36.997Z,79.81757259145664
2023-04-15T04:38:32.547Z,76.58012256277908
2023-04-15T04:41:28.185Z,75.50784127049073
2023-04-15T04:44:23.688Z,74.04215911195652
2023-04-15T04:47:20.226Z,75.41789760608697
2023-04-15T04:50:16.810Z,74.0499103915429
2023-04-15T04:53:13.379Z,73.99117384773335
2023-04-15T04:56:08.952Z,73.97948703284602
2023-04-15T04:59:04.476Z,74.5376631170065
2023-04-15T05:02:01.157Z,75.74769649958496
2023-04-15T05:04:56.603Z,76.25559242710978
2023-04-15T05:07:53.164Z,77.60579379378555
2023-04-15T05:10:49.704Z,78.02920520669564
2023-04-15T05:13:45.289Z,77.49863161448117
2023-04-15T05:16:40.880Z,77.4481495946246
2023-04-15T05:19:36.452Z,77.45181819794335
2023-04-15T05:22:33.980Z,76.52432885772558
2023-04-15T05:25:29.515Z,75.41412022568386
2023-04-15T05:28:27.097Z,74.61587888559411
2023-04-15T05:31:22.697Z,73.92291784930266
2023-04-15T05:34:19.213Z,74.41906242339994
2023-04-15T05:37:15.779Z,74.27428163805007
2023-04-15T05:40:11.335Z,73.68333285798708
2023-04-15T05:43:06.932Z,73.32115929313728
2023-04-15T05:46:03.447Z,74.0285450871589
2023-04-15T05:48:59.064Z,72.89080514265468
2023-04-15T05:51:54.590Z,73.86992523560076
2023-04-15T05:54:50.121Z,72.4935462855841
2023-04-15T05:57:45.677Z,72.02301334612913
2023-04-15T06:00:43.262Z,71.07769483677582
2023-04-15T06:03:39.990Z,71.71167121502647
2023-04-15T06:06:35.331Z,70.556057340027
2023-04-15T06:09:30.954Z,70.15398274016415
2023-04-15T06:12:28.473Z,70.73399924933787
2023-04-15T06:15:24.050Z,70.50159692010527
2023-04-15T06:18:19.576Z,68.77471975489485
2023-04-15T06:21:15.156Z,68.81452941067057
2023-04-15T06:24:12.737Z,69.3380473786177
2023-04-15T06:27:08.298Z,67.53697311053017
2023-04-15T06:30:04.857Z,67.44314600081302
2023-04-15T06:33:00.412Z,67.65525526583751
2023-04-15T06:35:55.974Z,66.77299579074106
2023-04-15T06:38:51.510Z,65.42458994801092
2023-04-15T06:41:47.135Z,65.88298983518612
2023-04-15T06:44:42.663Z,66.72114333387366
2023-04-15T06:47:38.216Z,66.77143812485892
2023-04-15T06:50:35.794Z,65.95298568239409
2023-04-15T06:53:31.351Z,65.94843376483713
2023-04-15T06:56:26.898Z,63.805841999209
2023-04-15T06:59:22.446Z,62.09450876990825
2023-04-15T07:02:19.267Z,62.70560673394809
2023-04-15T07:05:14.608Z,60.774602998445935
2023-04-15T07:08:10.206Z,59.19527454607803
2023-04-15T07:11:05.708Z,57.602210331779176
2023-04-15T07:14:03.238Z,59.851406186926866
2023-04-15T07:16:58.819Z,59.33486815232608
2023-04-15T07:19:55.352Z,56.80352389088185
2023-04-15T07:22:50.945Z,55.85407710532457
2023-04-15T07:25:47.498Z,56.30510564115723
2023-04-15T07:28:43.052Z,56.29465929325571
2023-04-15T07:31:40.635Z,56.31804964404567
2023-04-15T07:34:37.162Z,57.2291205359836
2023-04-15T07:37:33.767Z,54.10415039502381
2023-04-15T07:40:30.257Z,55.302044261253734
2023-04-15T07:43:25.840Z,57.60048632645554
2023-04-15T07:46:23.421Z,56.77963001653645
2023-04-15T07:49:20.973Z,55.14846485228983
2023-04-15T07:52:17.503Z,55.31202854079812
2023-04-15T07:55:13.102Z,55.763074843721384
2023-04-15T07:58:08.636Z,56.063648350305044
2023-04-15T08:01:05.201Z,56.105206505519845
2023-04-15T08:04:00.903Z,55.453979655522105
2023-04-15T08:06:56.329Z,56.73676572675212
2023-04-15T08:09:52.934Z,55.49773514726888
2023-04-15T08:12:49.452Z,55.2375073367496
2023-04-15T08:15:46.043Z,54.334892318664025
2023-04-15T08:18:42.566Z,53.806537453459505
2023-04-15T08:21:38.148Z,52.50444739720452
2023-04-15T08:24:34.697Z,52.40311950400418
2023-04-15T08:27:31.238Z,52.32521535728073
2023-04-15T08:30:27.788Z,51.93777138186068
2023-04-15T08:33:23.361Z,52.238895877092126
2023-04-15T08:36:19.944Z,53.08424890854578
2023-04-15T08:39:16.487Z,52.139774424313856
2023-04-15T08:42:17.018Z,51.41461111156319
2023-04-15T08:45:14.608Z,48.654855987144764
2023-04-15T08:48:13.138Z,49.31746174454203
2023-04-15T08:51:10.677Z,49.299842416631215
2023-04-15T08:54:08.250Z,49.28820257665697
2023-04-15T08:57:04.766Z,49.24391487052363
2023-04-15T09:00:05.366Z,48.052052998642296
2023-04-15T09:03:02.028Z,48.1548313998676
2023-04-15T09:05:58.463Z,49.002270952707164
2023-04-15T09:08:55.087Z,49.84717010845227
2023-04-15T09:11:51.618Z,49.43529268531813
2023-04-15T09:14:49.136Z,47.22255007474729
2023-04-15T09:17:45.799Z,46.29684223303286
2023-04-15T09:20:42.275Z,45.75152359891878
2023-04-15T09:23:47.770Z,44.80201843115157
2023-04-15T09:26:43.374Z,46.10325270268596
2023-04-15T09:29:41.892Z,44.7627960799784
2023-04-15T09:32:49.492Z,43.150966873516815
2023-04-15T09:35:49.958Z,45.340793180179396
2023-04-15T09:38:50.517Z,45.15352757441338
2023-04-15T09:41:59.047Z,46.35195137641292
2023-04-15T09:44:54.603Z,45.29307814155762
2023-04-15T09:48:05.133Z,46.53714815967792
2023-04-15T09:51:01.710Z,44.494230794333724
2023-04-15T09:53:58.243Z,44.711654447524886
2023-04-15T09:56:55.811Z,45.31649278668721
2023-04-15T09:59:51.437Z,45.557756266109074
2023-04-15T10:02:49.170Z,44.43344691967129
2023-04-15T10:05:47.486Z,41.56524880815654
2023-04-15T10:08:44.022Z,41.42147849893153
2023-04-15T10:11:39.776Z,44.06700651585098
2023-04-15T10:14:38.200Z,41.97072730435762
2023-04-15T10:17:36.708Z,43.4942160192467
2023-04-15T10:20:34.313Z,43.750255641785884
2023-04-15T10:23:31.857Z,42.54954195596868
2023-04-15T10:26:28.398Z,42.13652582280691
2023-04-15T10:29:25.980Z,40.65958371403154
2023-04-15T10:32:23.487Z,40.04308236489111
2023-04-15T10:35:22.068Z,41.3001789249325
2023-04-15T10:38:28.591Z,39.32953902189641
2023-04-15T10:41:25.192Z,41.24309601909082
2023-04-15T10:44:22.686Z,41.45464670161005
2023-04-15T10:47:21.657Z,41.22358042910502
2023-04-15T10:50:20.870Z,42.79630905744001
2023-04-15T10:53:23.344Z,41.24500332554715
2023-04-15T10:56:18.879Z,41.82773057116548
2023-04-15T10:59:16.475Z,42.17777862061706
2023-04-15T11:02:22.264Z,43.4433365488541
2023-04-15T11:05:30.603Z,44.13690049709862
2023-04-15T11:08:32.096Z,45.46876667561873
2023-04-15T11:11:32.635Z,45.80438743660744
2023-04-15T11:14:28.203Z,45.123457995662065
2023-04-15T11:17:28.787Z,45.47825094218564
2023-04-15T11:20:25.312Z,46.460520910347576
2023-04-15T11:23:26.871Z,46.71779505697876
2023-04-15T11:26:27.398Z,46.93882444024298
2023-04-15T11:29:28.967Z,48.10123680869874
2023-04-15T11:32:24.532Z,46.733966973901126
2023-04-15T11:35:21.100Z,45.67708237251834
2023-04-15T11:38:17.621Z,45.531957275304094
2023-04-15T11:41:15.193Z,46.02414500621742
2023-04-15T11:44:15.757Z,46.155063956447044
2023-04-15T11:47:17.305Z,45.07707084691698
2023-04-15T11:50:15.895Z,42.44339446131006
2023-04-15T11:53:13.405Z,41.86676292151506
2023-04-15T11:56:17.916Z,40.05362524547636
2023-04-15T11:59:15.496Z,42.47681007867505
2023-04-15T12:02:14.177Z,41.55128190761099
2023-04-15T12:05:10.613Z,41.86341624382598
2023-04-15T12:11:17.695Z,40.89128906046966
2023-04-15T12:14:22.263Z,37.606146278202786
2023-04-15T12:17:22.794Z,36.88802134537702
2023-04-15T12:20:22.342Z,35.959360704848535
2023-04-15T12:23:19.887Z,36.53789953753963
2023-04-15T12:26:15.423Z,37.74033529560514
2023-04-15T12:29:13.996Z,38.76757913321609
2023-04-15T12:32:15.623Z,38.84639237092047
2023-04-15T12:35:13.093Z,39.58261503684576
2023-04-15T12:38:10.639Z,40.3744437885619
2023-04-15T12:41:06.224Z,40.46960860783476
2023-04-15T12:44:02.019Z,41.32730351088383
2023-04-15T12:46:58.404Z,40.413372138166004
2023-04-15T12:49:54.894Z,42.04937661387415
2023-04-15T12:52:50.455Z,43.088064276011835
2023-04-15T12:55:46.042Z,43.79651191005239
2023-04-15T12:58:43.622Z,44.171228082210696
2023-04-15T13:01:41.154Z,43.48908242423308
2023-04-15T13:04:37.715Z,42.60439227127686
2023-04-15T13:07:34.228Z,43.08115739009814
2023-04-15T13:10:30.793Z,42.944971185922654
2023-04-15T13:13:28.378Z,42.36528810879173
2023-04-15T13:16:24.975Z,41.66073875922298
2023-04-15T13:19:21.493Z,39.87725479037813
2023-04-15T13:22:19.064Z,38.33703218458125
2023-04-15T13:25:15.618Z,34.363864826907495
2023-04-15T13:28:12.166Z,31.21345646638275
2023-04-15T13:31:09.739Z,29.85738404147152
2023-04-15T13:34:06.518Z,30.404060757379202
2023-04-15T13:37:05.780Z,31.198963902609037
2023-04-15T13:40:03.384Z,33.59960860512329
2023-04-15T13:42:59.956Z,31.429886008418794
2023-04-15T13:45:55.532Z,28.88104017605023
2023-04-15T13:48:52.102Z,28.953864208324692
2023-04-15T13:51:47.633Z,30.395344536821018
2023-04-15T13:54:43.198Z,30.39817871009579
2023-04-15T13:57:38.738Z,29.998733069566697
2023-04-15T14:00:35.360Z,28.96711962057317
2023-04-15T14:03:31.062Z,28.341204083597294
2023-04-15T14:06:28.425Z,29.266354077822623
2023-04-15T14:09:26.147Z,30.410302679795002
2023-04-15T14:12:21.525Z,31.662081263597578
2023-04-15T14:15:18.088Z,32.261575003874974
2023-04-15T14:18:13.662Z,31.094225601121945
2023-04-15T14:21:09.211Z,30.588403171399065
2023-04-15T14:24:06.769Z,33.14516320418694
2023-04-15T14:27:03.370Z,30.220192576415194
2023-04-15T14:29:59.885Z,29.650377523418243
2023-04-15T14:32:56.547Z,32.10481128705801
2023-04-15T14:35:52.025Z,29.880816154517483
2023-04-15T14:38:48.637Z,29.167657343365587
2023-04-15T14:41:44.117Z,27.583826959845517
2023-04-15T14:44:40.666Z,31.26557088335454
2023-04-15T14:47:37.252Z,28.669666316315055
2023-04-15T14:50:33.831Z,28.25224500318012
2023-04-15T14:53:32.342Z,29.550532614054266
2023-04-15T14:56:28.910Z,30.01600007196678
2023-04-15T14:59:25.487Z,31.8089311199019
2023-04-15T15:02:37.455Z,33.64279711465116
2023-04-15T15:05:22.660Z,36.989893961153676
2023-04-15T15:08:18.148Z,35.82765985281948
2023-04-15T15:11:13.692Z,35.64961851202368
2023-04-15T15:14:09.261Z,34.66508649112561
2023-04-15T15:17:05.849Z,35.88056712401121
2023-04-15T15:20:03.370Z,37.06625338788608
2023-04-15T15:22:58.939Z,38.24157559227249
2023-04-15T15:25:54.529Z,39.32484336517131
2023-04-15T15:28:50.064Z,36.97563283825107
2023-04-15T15:31:46.792Z,36.25156217307475
2023-04-15T15:34:42.181Z,35.08204116520172
2023-04-15T15:37:38.797Z,35.24936774312021
2023-04-15T15:40:36.296Z,33.87954027223646
2023-04-15T15:43:32.909Z,36.00643858449599
2023-04-15T15:46:31.563Z,33.766486954486986
2023-04-15T15:49:28.001Z,33.24602622040338
2023-04-15T15:52:23.549Z,35.892024231928666
2023-04-15T15:55:19.094Z,36.96862258010283
2023-04-15T15:58:14.672Z,36.775945869442516
2023-04-15T16:01:11.229Z,38.688283171366656
2023-04-15T16:04:07.975Z,39.735902645499735
2023-04-15T16:07:04.366Z,39.235067506269026
2023-04-15T16:09:59.893Z,39.64629873557549
2023-04-15T16:12:55.420Z,39.51122531148053
2023-04-15T16:15:51.025Z,39.86611310335468
2023-04-15T16:18:46.593Z,40.338732198573716
2023-04-15T16:21:43.193Z,40.794252718686664
2023-04-15T16:24:38.727Z,40.91756515589178
2023-04-15T16:27:40.762Z,41.88369071459178
2023-04-15T16:30:37.818Z,41.20937918354075
2023-04-15T16:33:33.355Z,41.64231678778095
2023-04-15T16:36:28.953Z,42.61614978584257
2023-04-15T16:39:24.498Z,43.60209982239618
2023-04-15T16:42:20.042Z,44.34018642796929
2023-04-15T16:45:15.594Z,44.66371844513882
2023-04-15T16:48:11.207Z,45.05393533433536
2023-04-15T16:51:07.697Z,45.60031286706263
2023-04-15T16:54:03.282Z,46.37610659689971
2023-04-15T16:56:58.872Z,46.61801730768101
2023-04-15T16:59:55.493Z,47.72134521731874
2023-04-15T17:02:51.094Z,48.19777637943132
2023-04-15T17:05:47.528Z,48.66984239531912
2023-04-15T17:08:44.107Z,49.47455501274289
2023-04-15T17:11:40.681Z,50.37061725544232
2023-04-15T17:14:38.210Z,50.75710163095418
2023-04-15T17:17:33.781Z,51.055498080919605
2023-04-15T17:20:29.344Z,50.691832758205805
2023-04-15T17:23:25.903Z,51.98576400535249
2023-04-15T17:26:23.454Z,52.5394181891699
2023-04-15T17:29:19.013Z,51.74863418500052
2023-04-15T17:32:14.600Z,51.77065445792451
2023-04-15T17:35:10.101Z,51.37135625436728
2023-04-15T17:38:07.683Z,52.58712209918875
2023-04-15T17:41:05.286Z,52.218999976957555
2023-04-15T17:44:01.908Z,51.6091045458267
2023-04-15T17:46:58.353Z,51.826451904858324
2023-04-15T17:49:53.952Z,53.831270150718865
2023-04-15T17:52:50.517Z,53.50006753792975
2023-04-15T17:55:46.025Z,53.53673066518952
2023-04-15T17:58:41.612Z,53.67654587861816
2023-04-15T18:01:38.229Z,54.522970514663776
2023-04-15T18:04:34.910Z,55.10680953343759
2023-04-15T18:07:30.266Z,55.21022004297856
2023-04-15T18:10:27.860Z,55.83439222803935
2023-04-15T18:13:23.396Z,55.62722615285515
2023-04-15T18:16:21.033Z,55.64706605088306
2023-04-15T18:19:17.515Z,55.97450394671028
2023-04-15T18:22:13.093Z,56.887381300947496
2023-04-15T18:25:10.624Z,57.83435156844743
2023-04-15T18:28:07.198Z,57.67096391064384
2023-04-15T18:31:03.717Z,57.87612669119104
2023-04-15T18:33:59.292Z,58.00974094955955
2023-04-15T18:36:56.992Z,58.26793256642779
2023-04-15T18:39:53.432Z,58.760662196308466
2023-04-15T18:42:48.969Z,59.30319058657672
2023-04-15T18:45:45.549Z,59.07444356343557
2023-04-15T18:48:41.120Z,59.89094675835411
2023-04-15T18:51:36.709Z,59.85236027965861
2023-04-15T18:54:34.206Z,59.69411194148186
2023-04-15T18:57:32.242Z,59.90314114411761
2023-04-15T19:00:32.361Z,59.951961129891394
2023-04-15T19:03:28.917Z,60.1877861130857
2023-04-15T19:06:24.457Z,60.37425125182928
2023-04-15T19:09:20.006Z,61.0254290243037
2023-04-15T19:12:15.564Z,61.40417193331117
2023-04-15T19:15:11.142Z,61.59749911658574
2023-04-15T19:18:10.729Z,62.10759975051674
2023-04-15T19:21:07.217Z,62.36946115827135
2023-04-15T19:24:03.800Z,62.013576653822646
2023-04-15T19:26:59.365Z,62.216466348519674
2023-04-15T19:29:55.918Z,62.08779456661484
2023-04-15T19:32:52.520Z,62.46851296748482
2023-04-15T19:35:50.167Z,62.319376566342264
2023-04-15T19:38:45.615Z,62.64276045202078
2023-04-15T19:41:44.181Z,62.315188978143766
2023-04-15T19:44:42.694Z,61.61319714237495
2023-04-15T19:47:40.318Z,61.608243469045945
2023-04-15T19:50:38.820Z,63.518617457411956
2023-04-15T19:53:35.358Z,67.26437424133482
2023-04-15T19:56:32.906Z,70.03184864331953
2023-04-15T19:59:31.500Z,70.01658658327801
2023-04-15T20:02:29.135Z,67.7003446698802
2023-04-15T20:05:25.588Z,67.72666402041435
2023-04-15T20:08:24.156Z,67.62936584689145
2023-04-15T20:11:21.698Z,67.28416269890867
2023-04-15T20:14:17.250Z,65.94188749409703
2023-04-15T20:17:14.934Z,65.2386320723778
2023-04-15T20:20:10.438Z,67.28800330099266
2023-04-15T20:23:06.966Z,67.17407922820725
2023-04-15T20:26:03.524Z,65.85108056796804
2023-04-15T20:29:00.082Z,66.51531739472352
2023-04-15T20:31:55.629Z,67.14180717081386
2023-04-15T20:34:51.179Z,66.764022861479
2023-04-15T20:37:48.765Z,66.45523054053204
2023-04-15T20:40:46.288Z,66.45925219741035
2023-04-15T20:43:41.843Z,64.68390374679025
2023-04-15T20:46:37.460Z,65.42378593871072
2023-04-15T20:49:34.971Z,64.72648846732163
2023-04-15T20:52:30.507Z,64.96181472981488
2023-04-15T20:55:26.065Z,65.39340988188619
2023-04-15T20:58:21.630Z,66.28591808532303
2023-04-15T21:01:19.250Z,66.82620244933958
2023-04-15T21:04:14.762Z,66.66987735248546
2023-04-15T21:07:11.388Z,66.78215958039866
2023-04-15T21:10:07.873Z,66.66987735248546
2023-04-15T21:13:03.450Z,66.42961071941978
2023-04-15T21:16:00.052Z,66.34200333885556
2023-04-15T21:18:55.582Z,65.97469714430105
2023-04-15T21:21:51.140Z,64.8574708916922
2023-04-15T21:24:46.725Z,65.2765506321184
2023-04-15T21:27:43.250Z,66.65694239495924
2023-04-15T21:30:39.836Z,65.78146996880518
2023-04-15T21:33:35.368Z,65.55464655479123
2023-04-15T21:36:31.978Z,65.77425674955248
2023-04-15T21:39:28.496Z,64.9119137357259
2023-04-15T21:42:24.073Z,64.76759768478381
2023-04-15T21:45:20.603Z,65.50778286764633
2023-04-15T21:48:17.274Z,65.82123523317112
2023-04-15T21:51:14.744Z,64.96566582614184
2023-04-15T21:54:10.286Z,64.7597604781835
2023-04-15T21:57:05.870Z,65.29528843684332
2023-04-15T22:00:01.438Z,65.90746463061932
2023-04-15T22:02:57.080Z,66.03790117940743
2023-04-15T22:05:53.529Z,66.96172716472981
2023-04-15T22:08:57.062Z,65.95282377801192
2023-04-15T22:11:54.641Z,65.83692871646174
2023-04-15T22:14:51.198Z,65.86964449269402
2023-04-15T22:17:48.799Z,66.32531764708763
2023-04-15T22:20:45.329Z,67.32092799809321
2023-04-15T22:23:41.863Z,66.51870873487742
2023-04-15T22:26:38.386Z,66.51223322859286
2023-04-15T22:29:34.972Z,65.72729156910006
2023-04-15T22:32:30.526Z,65.54358409736793
2023-04-15T22:35:27.067Z,65.14883138354459
2023-04-15T22:38:24.680Z,65.65569435435046
2023-04-15T22:41:23.245Z,66.65038934255718
2023-04-15T22:44:20.756Z,66.01198450113162
2023-04-15T22:47:19.381Z,65.41153748800485
2023-04-15T22:50:16.898Z,64.98788749873766
2023-04-15T22:53:12.483Z,65.53086129391036
2023-04-15T22:56:11.008Z,66.60847830031626
2023-04-15T22:59:07.780Z,67.18183631768264
2023-04-15T23:02:04.177Z,67.70837336998066
2023-04-15T23:04:59.821Z,68.87828595009458
2023-04-15T23:07:58.216Z,68.21861450639231
2023-04-15T23:10:54.756Z,68.18091311518528
2023-04-15T23:13:53.359Z,67.59332751706555
2023-04-15T23:16:54.953Z,68.59089012663262
2023-04-15T23:19:50.464Z,68.79157431464088
2023-04-15T23:22:45.997Z,69.21021786005309
2023-04-15T23:25:41.549Z,68.9126688834524
2023-04-15T23:28:38.135Z,69.77206992881207
2023-04-15T23:31:40.667Z,68.92660740935804
2023-04-15T23:34:38.280Z,68.3774323583558
2023-04-15T23:37:34.787Z,68.8447991038744
2023-04-15T23:40:30.333Z,68.83611487429673
2023-04-15T23:43:27.909Z,66.92984731524304
2023-04-15T23:46:25.521Z,67.43487605307341
2023-04-15T23:49:21.055Z,66.38636486537587
2023-04-15T23:52:16.596Z,65.97027174925677
2023-04-15T23:55:13.139Z,65.91743666501742
2023-04-15T23:58:09.693Z,66.08343738370735
